VLG5LU LEMG-GCRR
Flight info
| Callsign | VLG5LU |
|---|---|
| Flight time | 1h 58m |
| Altitude | 35000 |
| Route | PIMOS N869 GALTO UN869 PELAX UB11 MABAP UN869 ADM UG850 DEVLA |
| Aircraft | A320/M-SDFGHILORVWXY/LB1 |
Departure
| Time | 2026-05-06 15:11 |
|---|---|
| Airport | Málaga-Costa del Sol Airport (LEMG) |
Arrival
| Time | 2026-05-06 17:10 |
|---|---|
| Airport | César Manrique-Lanzarote Airport (GCRR) |
| Time | Latitude | Longitude | Altitude | Speed | Heading |
|---|---|---|---|---|---|
| 2026-05-06 14:39 | 36.67914 | -4.49534 | 41 ft | 0 kts | 183° |
| 2026-05-06 15:01 | 36.67928 | -4.49533 | 38 ft | 3 kts | 185° |
| 2026-05-06 15:01 | 36.67948 | -4.49530 | 40 ft | 3 kts | 192° |
| 2026-05-06 15:01 | 36.67967 | -4.49523 | 41 ft | 3 kts | 212° |
| 2026-05-06 15:02 | 36.67978 | -4.49512 | 39 ft | 3 kts | 272° |
| 2026-05-06 15:02 | 36.67978 | -4.49506 | 38 ft | 0 kts | 311° |
| 2026-05-06 15:05 | 36.67979 | -4.49506 | 38 ft | 0 kts | 311° |
| 2026-05-06 15:05 | 36.67979 | -4.49507 | 38 ft | 0 kts | 311° |
| 2026-05-06 15:06 | 36.67986 | -4.49517 | 38 ft | 4 kts | 311° |
| 2026-05-06 15:06 | 36.68017 | -4.49561 | 42 ft | 8 kts | 307° |
| 2026-05-06 15:06 | 36.68003 | -4.49625 | 40 ft | 9 kts | 227° |
| 2026-05-06 15:06 | 36.67952 | -4.49682 | 41 ft | 11 kts | 222° |
| 2026-05-06 15:07 | 36.67889 | -4.49752 | 42 ft | 13 kts | 221° |
| 2026-05-06 15:07 | 36.67815 | -4.49834 | 42 ft | 15 kts | 222° |
| 2026-05-06 15:07 | 36.67721 | -4.49900 | 43 ft | 16 kts | 238° |
| 2026-05-06 15:07 | 36.67771 | -4.50008 | 44 ft | 15 kts | 312° |
| 2026-05-06 15:08 | 36.67849 | -4.50118 | 44 ft | 19 kts | 311° |
| 2026-05-06 15:08 | 36.67950 | -4.50259 | 44 ft | 24 kts | 312° |
| 2026-05-06 15:08 | 36.68071 | -4.50427 | 44 ft | 27 kts | 310° |
| 2026-05-06 15:08 | 36.68200 | -4.50609 | 44 ft | 29 kts | 311° |
| 2026-05-06 15:09 | 36.68323 | -4.50781 | 48 ft | 22 kts | 312° |
| 2026-05-06 15:09 | 36.68395 | -4.50881 | 49 ft | 13 kts | 311° |
| 2026-05-06 15:09 | 36.68454 | -4.50965 | 51 ft | 13 kts | 311° |
| 2026-05-06 15:09 | 36.68504 | -4.51050 | 54 ft | 13 kts | 289° |
| 2026-05-06 15:10 | 36.68442 | -4.51129 | 54 ft | 14 kts | 191° |
| 2026-05-06 15:10 | 36.68351 | -4.51118 | 55 ft | 15 kts | 135° |
| 2026-05-06 15:10 | 36.68241 | -4.50961 | 52 ft | 48 kts | 131° |
| 2026-05-06 15:10 | 36.67864 | -4.50432 | 50 ft | 109 kts | 131° |
| 2026-05-06 15:11 | 36.67261 | -4.49591 | 51 ft | 153 kts | 133° |
| 2026-05-06 15:11 | 36.66544 | -4.48606 | 676 ft | 145 kts | 131° |
| 2026-05-06 15:11 | 36.65866 | -4.47655 | 1186 ft | 152 kts | 133° |
| 2026-05-06 15:11 | 36.65112 | -4.46602 | 1469 ft | 173 kts | 134° |
| 2026-05-06 15:12 | 36.64259 | -4.45414 | 1720 ft | 195 kts | 134° |
| 2026-05-06 15:12 | 36.63283 | -4.44096 | 1964 ft | 219 kts | 140° |
| 2026-05-06 15:12 | 36.61888 | -4.43298 | 2572 ft | 225 kts | 174° |
| 2026-05-06 15:12 | 36.60343 | -4.43530 | 3336 ft | 227 kts | 198° |
| 2026-05-06 15:13 | 36.58815 | -4.44104 | 4083 ft | 231 kts | 197° |
| 2026-05-06 15:13 | 36.57263 | -4.44672 | 4852 ft | 235 kts | 197° |
| 2026-05-06 15:13 | 36.55683 | -4.45243 | 5603 ft | 238 kts | 198° |
| 2026-05-06 15:13 | 36.54097 | -4.45870 | 6381 ft | 240 kts | 205° |
| 2026-05-06 15:14 | 36.52678 | -4.46964 | 7025 ft | 247 kts | 223° |
| 2026-05-06 15:14 | 36.51347 | -4.48458 | 7379 ft | 269 kts | 224° |
| 2026-05-06 15:14 | 36.49948 | -4.50058 | 8047 ft | 276 kts | 224° |
| 2026-05-06 15:14 | 36.48525 | -4.51684 | 8863 ft | 279 kts | 223° |
| 2026-05-06 15:15 | 36.47089 | -4.53316 | 9725 ft | 280 kts | 224° |
| 2026-05-06 15:15 | 36.45639 | -4.54961 | 10380 ft | 288 kts | 223° |
| 2026-05-06 15:15 | 36.44097 | -4.56706 | 10586 ft | 311 kts | 223° |
| 2026-05-06 15:15 | 36.42433 | -4.58588 | 10979 ft | 324 kts | 223° |
| 2026-05-06 15:16 | 36.40751 | -4.60483 | 11624 ft | 328 kts | 223° |
| 2026-05-06 15:16 | 36.39056 | -4.62390 | 12359 ft | 330 kts | 223° |
| 2026-05-06 15:16 | 36.37350 | -4.64309 | 13077 ft | 332 kts | 223° |
| 2026-05-06 15:16 | 36.35630 | -4.66245 | 13728 ft | 336 kts | 223° |
| 2026-05-06 15:17 | 36.33891 | -4.68203 | 14300 ft | 339 kts | 223° |
| 2026-05-06 15:17 | 36.32138 | -4.70173 | 14912 ft | 341 kts | 223° |
| 2026-05-06 15:17 | 36.30374 | -4.72155 | 15493 ft | 344 kts | 223° |
| 2026-05-06 15:17 | 36.28596 | -4.74152 | 16060 ft | 347 kts | 223° |
| 2026-05-06 15:18 | 36.26799 | -4.76169 | 16635 ft | 350 kts | 223° |
| 2026-05-06 15:18 | 36.24989 | -4.78197 | 17218 ft | 352 kts | 223° |
| 2026-05-06 15:18 | 36.23161 | -4.80243 | 17799 ft | 355 kts | 223° |
| 2026-05-06 15:18 | 36.21323 | -4.82306 | 18334 ft | 358 kts | 223° |
| 2026-05-06 15:19 | 36.19471 | -4.84385 | 18861 ft | 360 kts | 223° |
| 2026-05-06 15:19 | 36.17610 | -4.86470 | 19427 ft | 361 kts | 223° |
| 2026-05-06 15:19 | 36.15743 | -4.88557 | 20006 ft | 362 kts | 223° |
| 2026-05-06 15:19 | 36.13712 | -4.90410 | 20558 ft | 365 kts | 215° |
| 2026-05-06 15:20 | 36.11572 | -4.92095 | 21091 ft | 365 kts | 215° |
| 2026-05-06 15:20 | 36.09425 | -4.93785 | 21639 ft | 366 kts | 215° |
| 2026-05-06 15:20 | 36.07276 | -4.95480 | 22165 ft | 367 kts | 215° |
| 2026-05-06 15:20 | 36.05123 | -4.97182 | 22715 ft | 367 kts | 216° |
| 2026-05-06 15:21 | 36.02970 | -4.98887 | 23240 ft | 368 kts | 216° |
| 2026-05-06 15:21 | 36.00811 | -5.00596 | 23701 ft | 369 kts | 216° |
| 2026-05-06 15:21 | 35.98643 | -5.02307 | 24117 ft | 371 kts | 216° |
| 2026-05-06 15:21 | 35.96465 | -5.04027 | 24524 ft | 372 kts | 216° |
| 2026-05-06 15:22 | 35.94283 | -5.05749 | 24928 ft | 373 kts | 216° |
| 2026-05-06 15:22 | 35.92058 | -5.07500 | 25331 ft | 375 kts | 216° |
| 2026-05-06 15:22 | 35.89858 | -5.09232 | 25726 ft | 376 kts | 216° |
| 2026-05-06 15:22 | 35.87645 | -5.10971 | 26118 ft | 378 kts | 215° |
| 2026-05-06 15:23 | 35.85423 | -5.12718 | 26489 ft | 379 kts | 216° |
| 2026-05-06 15:23 | 35.83196 | -5.14473 | 26856 ft | 380 kts | 216° |
| 2026-05-06 15:23 | 35.81014 | -5.16321 | 27230 ft | 381 kts | 218° |
| 2026-05-06 15:23 | 35.78882 | -5.18265 | 27611 ft | 382 kts | 219° |
| 2026-05-06 15:24 | 35.76767 | -5.20268 | 27984 ft | 384 kts | 220° |
| 2026-05-06 15:24 | 35.74655 | -5.22286 | 28360 ft | 385 kts | 220° |
| 2026-05-06 15:24 | 35.72528 | -5.24302 | 28732 ft | 387 kts | 220° |
| 2026-05-06 15:24 | 35.70379 | -5.26313 | 29117 ft | 389 kts | 219° |
| 2026-05-06 15:25 | 35.68211 | -5.28324 | 29486 ft | 391 kts | 219° |
| 2026-05-06 15:25 | 35.66033 | -5.30327 | 29862 ft | 392 kts | 219° |
| 2026-05-06 15:25 | 35.63838 | -5.32337 | 30207 ft | 393 kts | 219° |
| 2026-05-06 15:25 | 35.61652 | -5.34333 | 30629 ft | 391 kts | 219° |
| 2026-05-06 15:26 | 35.59477 | -5.36318 | 31135 ft | 388 kts | 219° |
| 2026-05-06 15:26 | 35.57323 | -5.38287 | 31620 ft | 385 kts | 219° |
| 2026-05-06 15:26 | 35.55183 | -5.40250 | 32101 ft | 382 kts | 219° |
| 2026-05-06 15:26 | 35.53060 | -5.42200 | 32555 ft | 380 kts | 219° |
| 2026-05-06 15:27 | 35.50950 | -5.44137 | 33043 ft | 378 kts | 219° |
| 2026-05-06 15:27 | 35.48853 | -5.46057 | 33533 ft | 375 kts | 219° |
| 2026-05-06 15:27 | 35.46763 | -5.47966 | 33993 ft | 374 kts | 219° |
| 2026-05-06 15:27 | 35.44681 | -5.49862 | 34554 ft | 372 kts | 219° |
| 2026-05-06 15:28 | 35.42591 | -5.51767 | 34828 ft | 378 kts | 220° |
| 2026-05-06 15:28 | 35.38274 | -5.55715 | 34915 ft | 395 kts | 220° |
| 2026-05-06 15:29 | 35.33786 | -5.59800 | 34919 ft | 405 kts | 219° |
| 2026-05-06 15:29 | 35.29240 | -5.63921 | 34933 ft | 407 kts | 219° |
| 2026-05-06 15:30 | 35.24655 | -5.68070 | 34939 ft | 407 kts | 219° |
| 2026-05-06 15:30 | 35.20099 | -5.72197 | 34947 ft | 407 kts | 219° |
| 2026-05-06 15:31 | 35.15559 | -5.76313 | 34933 ft | 406 kts | 219° |
| 2026-05-06 15:31 | 35.11014 | -5.80425 | 34936 ft | 406 kts | 219° |
| 2026-05-06 15:32 | 35.04202 | -5.86563 | 34931 ft | 406 kts | 219° |
| 2026-05-06 15:32 | 34.99662 | -5.90659 | 34932 ft | 406 kts | 219° |
| 2026-05-06 15:33 | 34.95118 | -5.94739 | 34938 ft | 406 kts | 219° |
| 2026-05-06 15:33 | 34.90573 | -5.98816 | 34938 ft | 405 kts | 219° |
| 2026-05-06 15:34 | 34.86038 | -6.02894 | 34932 ft | 405 kts | 219° |
| 2026-05-06 15:34 | 34.81504 | -6.06964 | 34932 ft | 405 kts | 219° |
| 2026-05-06 15:35 | 34.76964 | -6.11024 | 34933 ft | 404 kts | 219° |
| 2026-05-06 15:35 | 34.72432 | -6.15069 | 34934 ft | 404 kts | 219° |
| 2026-05-06 15:36 | 34.67897 | -6.19108 | 34931 ft | 404 kts | 219° |
| 2026-05-06 15:36 | 34.64099 | -6.22490 | 34931 ft | 404 kts | 219° |
| 2026-05-06 15:37 | 34.59566 | -6.26531 | 34931 ft | 404 kts | 219° |
| 2026-05-06 15:37 | 34.55035 | -6.30559 | 34924 ft | 403 kts | 219° |
| 2026-05-06 15:38 | 34.50505 | -6.34564 | 34929 ft | 403 kts | 219° |
| 2026-05-06 15:38 | 34.45977 | -6.38567 | 34932 ft | 403 kts | 219° |
| 2026-05-06 15:39 | 34.41452 | -6.42574 | 34932 ft | 403 kts | 219° |
| 2026-05-06 15:39 | 34.36932 | -6.46576 | 34939 ft | 403 kts | 219° |
| 2026-05-06 15:40 | 34.32400 | -6.50573 | 34931 ft | 403 kts | 219° |
| 2026-05-06 15:40 | 34.27866 | -6.54566 | 34903 ft | 403 kts | 219° |
| 2026-05-06 15:41 | 34.23335 | -6.58549 | 34905 ft | 403 kts | 219° |
| 2026-05-06 15:41 | 34.18810 | -6.62531 | 34918 ft | 402 kts | 219° |
| 2026-05-06 15:42 | 34.14283 | -6.66507 | 34910 ft | 402 kts | 219° |
| 2026-05-06 15:42 | 34.09723 | -6.70491 | 34921 ft | 402 kts | 219° |
| 2026-05-06 15:43 | 34.05190 | -6.74448 | 34928 ft | 402 kts | 219° |
| 2026-05-06 15:43 | 34.00610 | -6.78324 | 34915 ft | 402 kts | 218° |
| 2026-05-06 15:44 | 33.95983 | -6.82089 | 34928 ft | 401 kts | 218° |
| 2026-05-06 15:44 | 33.91357 | -6.85847 | 34948 ft | 401 kts | 218° |
| 2026-05-06 15:45 | 33.89053 | -6.87731 | 35162 ft | 401 kts | 218° |
| 2026-05-06 15:45 | 33.86744 | -6.89623 | 35411 ft | 402 kts | 218° |
| 2026-05-06 15:45 | 33.84428 | -6.91526 | 35668 ft | 403 kts | 218° |
| 2026-05-06 15:45 | 33.82113 | -6.93428 | 35872 ft | 403 kts | 218° |
| 2026-05-06 15:46 | 33.77479 | -6.97225 | 35934 ft | 403 kts | 218° |
| 2026-05-06 15:46 | 33.72855 | -7.00997 | 35952 ft | 399 kts | 218° |
| 2026-05-06 15:47 | 33.68269 | -7.04732 | 35949 ft | 398 kts | 218° |
| 2026-05-06 15:47 | 33.63693 | -7.08467 | 35948 ft | 397 kts | 218° |
| 2026-05-06 15:48 | 33.59122 | -7.12190 | 35946 ft | 397 kts | 218° |
| 2026-05-06 15:48 | 33.54545 | -7.15909 | 35947 ft | 397 kts | 218° |
| 2026-05-06 15:49 | 33.49971 | -7.19625 | 35948 ft | 397 kts | 218° |
| 2026-05-06 15:49 | 33.45404 | -7.23335 | 35934 ft | 396 kts | 218° |
| 2026-05-06 15:50 | 33.40839 | -7.27025 | 35948 ft | 395 kts | 218° |
| 2026-05-06 15:50 | 33.36254 | -7.30727 | 35952 ft | 395 kts | 218° |
| 2026-05-06 15:51 | 33.31705 | -7.34404 | 35952 ft | 395 kts | 218° |
| 2026-05-06 15:51 | 33.27150 | -7.38078 | 35953 ft | 395 kts | 218° |
| 2026-05-06 15:52 | 33.22593 | -7.41746 | 35947 ft | 395 kts | 218° |
| 2026-05-06 15:52 | 33.18035 | -7.45413 | 35949 ft | 395 kts | 218° |
| 2026-05-06 15:53 | 33.13481 | -7.49071 | 35941 ft | 395 kts | 218° |
| 2026-05-06 15:53 | 33.08872 | -7.52646 | 35941 ft | 396 kts | 216° |
| 2026-05-06 15:54 | 33.04109 | -7.55977 | 35944 ft | 397 kts | 215° |
| 2026-05-06 15:54 | 32.99322 | -7.59260 | 35937 ft | 397 kts | 215° |
| 2026-05-06 15:55 | 32.94553 | -7.62583 | 35928 ft | 398 kts | 215° |
| 2026-05-06 15:55 | 32.89775 | -7.65938 | 35910 ft | 399 kts | 215° |
| 2026-05-06 15:56 | 32.85023 | -7.69281 | 35934 ft | 395 kts | 216° |
| 2026-05-06 15:56 | 32.80295 | -7.72613 | 35928 ft | 395 kts | 216° |
| 2026-05-06 15:57 | 32.75566 | -7.75934 | 35928 ft | 395 kts | 215° |
| 2026-05-06 15:57 | 32.70795 | -7.79263 | 35928 ft | 395 kts | 215° |
| 2026-05-06 15:58 | 32.66053 | -7.82564 | 35924 ft | 395 kts | 215° |
| 2026-05-06 15:58 | 32.61341 | -7.85841 | 35938 ft | 386 kts | 216° |
| 2026-05-06 15:59 | 32.59063 | -7.87417 | 35929 ft | 374 kts | 216° |
| 2026-05-06 15:59 | 32.56813 | -7.88978 | 35920 ft | 376 kts | 216° |
| 2026-05-06 15:59 | 32.52305 | -7.92124 | 35920 ft | 377 kts | 216° |
| 2026-05-06 16:00 | 32.47785 | -7.95272 | 35925 ft | 377 kts | 216° |
| 2026-05-06 16:00 | 32.43259 | -7.98406 | 35925 ft | 377 kts | 216° |
| 2026-05-06 16:01 | 32.38733 | -8.01544 | 35919 ft | 377 kts | 216° |
| 2026-05-06 16:01 | 32.34213 | -8.04683 | 35901 ft | 376 kts | 216° |
| 2026-05-06 16:02 | 32.29710 | -8.07798 | 35938 ft | 374 kts | 216° |
| 2026-05-06 16:02 | 32.25222 | -8.10894 | 35943 ft | 373 kts | 216° |
| 2026-05-06 16:03 | 32.20724 | -8.14006 | 35942 ft | 372 kts | 216° |
| 2026-05-06 16:03 | 32.16265 | -8.17079 | 35940 ft | 371 kts | 216° |
| 2026-05-06 16:04 | 32.11799 | -8.20139 | 35933 ft | 371 kts | 216° |
| 2026-05-06 16:04 | 32.07319 | -8.23164 | 35903 ft | 371 kts | 215° |
| 2026-05-06 16:05 | 32.02834 | -8.26162 | 35919 ft | 370 kts | 215° |
| 2026-05-06 16:05 | 31.98363 | -8.29161 | 35924 ft | 369 kts | 215° |
| 2026-05-06 16:06 | 31.93901 | -8.32152 | 35930 ft | 369 kts | 215° |
| 2026-05-06 16:06 | 31.89439 | -8.35136 | 35942 ft | 369 kts | 215° |
| 2026-05-06 16:07 | 31.84968 | -8.38128 | 35924 ft | 370 kts | 215° |
| 2026-05-06 16:07 | 31.80489 | -8.41127 | 35920 ft | 371 kts | 215° |
| 2026-05-06 16:08 | 31.75996 | -8.44118 | 35900 ft | 371 kts | 215° |
| 2026-05-06 16:08 | 31.71512 | -8.47102 | 35914 ft | 370 kts | 215° |
| 2026-05-06 16:09 | 31.67761 | -8.49605 | 35924 ft | 370 kts | 215° |
| 2026-05-06 16:09 | 31.63286 | -8.52590 | 35930 ft | 370 kts | 215° |
| 2026-05-06 16:10 | 31.58806 | -8.55565 | 35928 ft | 370 kts | 215° |
| 2026-05-06 16:10 | 31.54325 | -8.58535 | 35934 ft | 370 kts | 215° |
| 2026-05-06 16:11 | 31.49847 | -8.61503 | 35888 ft | 370 kts | 214° |
| 2026-05-06 16:11 | 31.45359 | -8.64473 | 35901 ft | 371 kts | 214° |
| 2026-05-06 16:12 | 31.40863 | -8.67443 | 35914 ft | 371 kts | 214° |
| 2026-05-06 16:12 | 31.36362 | -8.70417 | 35923 ft | 372 kts | 214° |
| 2026-05-06 16:13 | 31.31856 | -8.73397 | 35941 ft | 372 kts | 214° |
| 2026-05-06 16:13 | 31.27347 | -8.76373 | 35953 ft | 372 kts | 214° |
| 2026-05-06 16:14 | 31.22834 | -8.79338 | 35942 ft | 372 kts | 214° |
| 2026-05-06 16:14 | 31.18322 | -8.82299 | 35919 ft | 373 kts | 214° |
| 2026-05-06 16:15 | 31.13800 | -8.85273 | 35927 ft | 373 kts | 214° |
| 2026-05-06 16:15 | 31.09269 | -8.88246 | 35918 ft | 373 kts | 214° |
| 2026-05-06 16:16 | 31.04706 | -8.91235 | 35914 ft | 374 kts | 214° |
| 2026-05-06 16:16 | 31.00168 | -8.94207 | 35917 ft | 374 kts | 214° |
| 2026-05-06 16:17 | 30.95624 | -8.97184 | 35904 ft | 374 kts | 214° |
| 2026-05-06 16:17 | 30.91084 | -9.00158 | 35877 ft | 374 kts | 214° |
| 2026-05-06 16:18 | 30.86547 | -9.03120 | 35867 ft | 374 kts | 214° |
| 2026-05-06 16:18 | 30.82005 | -9.06077 | 35878 ft | 374 kts | 214° |
| 2026-05-06 16:19 | 30.77469 | -9.09031 | 35885 ft | 374 kts | 214° |
| 2026-05-06 16:19 | 30.72927 | -9.11985 | 35873 ft | 375 kts | 214° |
| 2026-05-06 16:20 | 30.68374 | -9.14940 | 35871 ft | 375 kts | 214° |
| 2026-05-06 16:20 | 30.63827 | -9.17894 | 35865 ft | 374 kts | 214° |
| 2026-05-06 16:21 | 30.59285 | -9.20844 | 35833 ft | 374 kts | 213° |
| 2026-05-06 16:21 | 30.54745 | -9.23791 | 35844 ft | 374 kts | 214° |
| 2026-05-06 16:22 | 30.50203 | -9.26722 | 35849 ft | 374 kts | 214° |
| 2026-05-06 16:22 | 30.45656 | -9.29653 | 35859 ft | 374 kts | 214° |
| 2026-05-06 16:23 | 30.41083 | -9.32613 | 35860 ft | 374 kts | 214° |
| 2026-05-06 16:23 | 30.36537 | -9.35548 | 35862 ft | 374 kts | 214° |
| 2026-05-06 16:24 | 30.32538 | -9.39227 | 35864 ft | 367 kts | 232° |
| 2026-05-06 16:24 | 30.31197 | -9.41739 | 35867 ft | 369 kts | 243° |
| 2026-05-06 16:24 | 30.30285 | -9.44525 | 35862 ft | 371 kts | 246° |
| 2026-05-06 16:25 | 30.28556 | -9.50154 | 35872 ft | 372 kts | 246° |
| 2026-05-06 16:25 | 30.26815 | -9.55794 | 35862 ft | 373 kts | 246° |
| 2026-05-06 16:26 | 30.25056 | -9.61444 | 35868 ft | 374 kts | 246° |
| 2026-05-06 16:26 | 30.23294 | -9.67096 | 35885 ft | 374 kts | 246° |
| 2026-05-06 16:27 | 30.21535 | -9.72761 | 35905 ft | 374 kts | 246° |
| 2026-05-06 16:27 | 30.19773 | -9.78426 | 35902 ft | 375 kts | 246° |
| 2026-05-06 16:28 | 30.18006 | -9.84089 | 35933 ft | 375 kts | 246° |
| 2026-05-06 16:28 | 30.16278 | -9.89785 | 35927 ft | 376 kts | 247° |
| 2026-05-06 16:29 | 30.14581 | -9.95505 | 35927 ft | 376 kts | 247° |
| 2026-05-06 16:29 | 30.12875 | -10.01219 | 35943 ft | 377 kts | 246° |
| 2026-05-06 16:30 | 30.11434 | -10.06007 | 35947 ft | 377 kts | 246° |
| 2026-05-06 16:30 | 30.09436 | -10.12656 | 35946 ft | 377 kts | 246° |
| 2026-05-06 16:31 | 30.07702 | -10.18403 | 35956 ft | 377 kts | 246° |
| 2026-05-06 16:31 | 30.05954 | -10.24102 | 35955 ft | 377 kts | 246° |
| 2026-05-06 16:32 | 30.04151 | -10.29782 | 35959 ft | 377 kts | 246° |
| 2026-05-06 16:32 | 30.02341 | -10.35469 | 35956 ft | 378 kts | 246° |
| 2026-05-06 16:33 | 30.00533 | -10.41156 | 35958 ft | 378 kts | 246° |
| 2026-05-06 16:34 | 29.97822 | -10.49695 | 35934 ft | 378 kts | 246° |
| 2026-05-06 16:34 | 29.96013 | -10.55394 | 35936 ft | 379 kts | 245° |
| 2026-05-06 16:35 | 29.94190 | -10.61103 | 35951 ft | 380 kts | 245° |
| 2026-05-06 16:35 | 29.92360 | -10.66819 | 35953 ft | 380 kts | 245° |
| 2026-05-06 16:36 | 29.90524 | -10.72543 | 35962 ft | 381 kts | 245° |
| 2026-05-06 16:36 | 29.88692 | -10.78277 | 35964 ft | 381 kts | 245° |
| 2026-05-06 16:37 | 29.86853 | -10.84008 | 35972 ft | 381 kts | 245° |
| 2026-05-06 16:37 | 29.85012 | -10.89738 | 35974 ft | 381 kts | 245° |
| 2026-05-06 16:38 | 29.83156 | -10.95501 | 35992 ft | 381 kts | 245° |
| 2026-05-06 16:38 | 29.81303 | -11.01233 | 35983 ft | 382 kts | 245° |
| 2026-05-06 16:39 | 29.79445 | -11.06964 | 35987 ft | 382 kts | 245° |
| 2026-05-06 16:39 | 29.77599 | -11.12700 | 35987 ft | 382 kts | 245° |
| 2026-05-06 16:40 | 29.75746 | -11.18436 | 35989 ft | 383 kts | 245° |
| 2026-05-06 16:40 | 29.73882 | -11.24174 | 35989 ft | 383 kts | 245° |
| 2026-05-06 16:41 | 29.72016 | -11.29911 | 35990 ft | 383 kts | 245° |
| 2026-05-06 16:41 | 29.70125 | -11.35689 | 35981 ft | 392 kts | 247° |
| 2026-05-06 16:42 | 29.68505 | -11.40626 | 35979 ft | 395 kts | 247° |
| 2026-05-06 16:42 | 29.66566 | -11.46556 | 35984 ft | 396 kts | 247° |
| 2026-05-06 16:43 | 29.64660 | -11.52398 | 35977 ft | 379 kts | 247° |
| 2026-05-06 16:43 | 29.63737 | -11.55216 | 35765 ft | 375 kts | 246° |
| 2026-05-06 16:43 | 29.62818 | -11.58008 | 35522 ft | 373 kts | 246° |
| 2026-05-06 16:43 | 29.61899 | -11.60791 | 35277 ft | 372 kts | 246° |
| 2026-05-06 16:44 | 29.60983 | -11.63565 | 35038 ft | 371 kts | 246° |
| 2026-05-06 16:44 | 29.60073 | -11.66331 | 34798 ft | 369 kts | 246° |
| 2026-05-06 16:44 | 29.59171 | -11.69080 | 34525 ft | 365 kts | 245° |
| 2026-05-06 16:44 | 29.58278 | -11.71791 | 34291 ft | 360 kts | 245° |
| 2026-05-06 16:45 | 29.57392 | -11.74471 | 34056 ft | 357 kts | 245° |
| 2026-05-06 16:45 | 29.56512 | -11.77128 | 33810 ft | 355 kts | 245° |
| 2026-05-06 16:45 | 29.55638 | -11.79770 | 33537 ft | 353 kts | 245° |
| 2026-05-06 16:45 | 29.54768 | -11.82400 | 33267 ft | 352 kts | 245° |
| 2026-05-06 16:46 | 29.53901 | -11.85021 | 33009 ft | 350 kts | 245° |
| 2026-05-06 16:46 | 29.53038 | -11.87629 | 32756 ft | 348 kts | 245° |
| 2026-05-06 16:46 | 29.52188 | -11.90202 | 32441 ft | 342 kts | 245° |
| 2026-05-06 16:46 | 29.51354 | -11.92734 | 32058 ft | 337 kts | 245° |
| 2026-05-06 16:47 | 29.50529 | -11.95230 | 31682 ft | 332 kts | 245° |
| 2026-05-06 16:47 | 29.49713 | -11.97694 | 31297 ft | 328 kts | 245° |
| 2026-05-06 16:47 | 29.48905 | -12.00125 | 30930 ft | 324 kts | 245° |
| 2026-05-06 16:47 | 29.48103 | -12.02533 | 30554 ft | 321 kts | 246° |
| 2026-05-06 16:48 | 29.47302 | -12.04934 | 30205 ft | 328 kts | 247° |
| 2026-05-06 16:48 | 29.46449 | -12.07475 | 29764 ft | 354 kts | 248° |
| 2026-05-06 16:48 | 29.45538 | -12.10198 | 29351 ft | 377 kts | 248° |
| 2026-05-06 16:48 | 29.44583 | -12.13059 | 28924 ft | 386 kts | 248° |
| 2026-05-06 16:49 | 29.43627 | -12.15929 | 28507 ft | 385 kts | 248° |
| 2026-05-06 16:49 | 29.42668 | -12.18799 | 28098 ft | 384 kts | 248° |
| 2026-05-06 16:49 | 29.41726 | -12.21615 | 27780 ft | 374 kts | 248° |
| 2026-05-06 16:49 | 29.40786 | -12.24427 | 27298 ft | 373 kts | 248° |
| 2026-05-06 16:50 | 29.39857 | -12.27204 | 26921 ft | 374 kts | 249° |
| 2026-05-06 16:50 | 29.38924 | -12.29996 | 26534 ft | 376 kts | 249° |
| 2026-05-06 16:50 | 29.37985 | -12.32806 | 26129 ft | 378 kts | 249° |
| 2026-05-06 16:50 | 29.37040 | -12.35626 | 25744 ft | 380 kts | 249° |
| 2026-05-06 16:51 | 29.36086 | -12.38459 | 25342 ft | 382 kts | 249° |
| 2026-05-06 16:51 | 29.35125 | -12.41306 | 24921 ft | 385 kts | 249° |
| 2026-05-06 16:51 | 29.34155 | -12.44184 | 24505 ft | 388 kts | 249° |
| 2026-05-06 16:51 | 29.33179 | -12.47080 | 24059 ft | 391 kts | 249° |
| 2026-05-06 16:52 | 29.32198 | -12.49993 | 23611 ft | 393 kts | 249° |
| 2026-05-06 16:52 | 29.31209 | -12.52918 | 23096 ft | 395 kts | 249° |
| 2026-05-06 16:52 | 29.30215 | -12.55859 | 22629 ft | 396 kts | 249° |
| 2026-05-06 16:52 | 29.29218 | -12.58806 | 22157 ft | 398 kts | 249° |
| 2026-05-06 16:53 | 29.28217 | -12.61762 | 21676 ft | 399 kts | 249° |
| 2026-05-06 16:53 | 29.27214 | -12.64728 | 21194 ft | 400 kts | 249° |
| 2026-05-06 16:53 | 29.26206 | -12.67710 | 20707 ft | 402 kts | 250° |
| 2026-05-06 16:53 | 29.25196 | -12.70691 | 20221 ft | 399 kts | 249° |
| 2026-05-06 16:54 | 29.24059 | -12.73533 | 19876 ft | 387 kts | 244° |
| 2026-05-06 16:54 | 29.22860 | -12.76250 | 19468 ft | 379 kts | 244° |
| 2026-05-06 16:54 | 29.21672 | -12.78917 | 19044 ft | 372 kts | 244° |
| 2026-05-06 16:54 | 29.20503 | -12.81532 | 18614 ft | 366 kts | 244° |
| 2026-05-06 16:55 | 29.19348 | -12.84111 | 18181 ft | 363 kts | 244° |
| 2026-05-06 16:55 | 29.18201 | -12.86675 | 17517 ft | 362 kts | 244° |
| 2026-05-06 16:55 | 29.17049 | -12.89253 | 16759 ft | 364 kts | 244° |
| 2026-05-06 16:55 | 29.15895 | -12.91845 | 15981 ft | 367 kts | 244° |
| 2026-05-06 16:56 | 29.14717 | -12.94485 | 15294 ft | 368 kts | 244° |
| 2026-05-06 16:56 | 29.13548 | -12.97098 | 15061 ft | 371 kts | 244° |
| 2026-05-06 16:56 | 29.12380 | -12.99704 | 14895 ft | 360 kts | 244° |
| 2026-05-06 16:56 | 29.11259 | -13.02198 | 14719 ft | 346 kts | 244° |
| 2026-05-06 16:57 | 29.10181 | -13.04601 | 14489 ft | 334 kts | 244° |
| 2026-05-06 16:57 | 29.09135 | -13.06936 | 14255 ft | 325 kts | 244° |
| 2026-05-06 16:57 | 29.08121 | -13.09200 | 14016 ft | 316 kts | 245° |
| 2026-05-06 16:57 | 29.07128 | -13.11416 | 13774 ft | 309 kts | 245° |
| 2026-05-06 16:58 | 29.06158 | -13.13582 | 13530 ft | 304 kts | 245° |
| 2026-05-06 16:58 | 29.05200 | -13.15717 | 13218 ft | 300 kts | 245° |
| 2026-05-06 16:58 | 29.04254 | -13.17831 | 12857 ft | 298 kts | 245° |
| 2026-05-06 16:58 | 29.03312 | -13.19929 | 12493 ft | 296 kts | 245° |
| 2026-05-06 16:59 | 29.02372 | -13.22020 | 12130 ft | 295 kts | 245° |
| 2026-05-06 16:59 | 29.01435 | -13.24098 | 11821 ft | 292 kts | 245° |
| 2026-05-06 16:59 | 29.00511 | -13.26145 | 11455 ft | 291 kts | 245° |
| 2026-05-06 16:59 | 28.99586 | -13.28196 | 11116 ft | 289 kts | 245° |
| 2026-05-06 17:00 | 28.98660 | -13.30251 | 10704 ft | 291 kts | 245° |
| 2026-05-06 17:00 | 28.97630 | -13.32234 | 10368 ft | 291 kts | 237° |
| 2026-05-06 17:00 | 28.96440 | -13.34114 | 10018 ft | 291 kts | 238° |
| 2026-05-06 17:00 | 28.95240 | -13.35992 | 9599 ft | 292 kts | 236° |
| 2026-05-06 17:01 | 28.94041 | -13.37859 | 9210 ft | 292 kts | 236° |
| 2026-05-06 17:01 | 28.92842 | -13.39728 | 8822 ft | 292 kts | 238° |
| 2026-05-06 17:01 | 28.91656 | -13.41578 | 8553 ft | 287 kts | 238° |
| 2026-05-06 17:01 | 28.90479 | -13.43412 | 8144 ft | 285 kts | 238° |
| 2026-05-06 17:02 | 28.89305 | -13.45245 | 7726 ft | 285 kts | 237° |
| 2026-05-06 17:02 | 28.88138 | -13.47068 | 7236 ft | 284 kts | 236° |
| 2026-05-06 17:02 | 28.86959 | -13.48908 | 6794 ft | 281 kts | 238° |
| 2026-05-06 17:02 | 28.85829 | -13.50675 | 6424 ft | 280 kts | 238° |
| 2026-05-06 17:03 | 28.84663 | -13.52499 | 6047 ft | 281 kts | 236° |
| 2026-05-06 17:03 | 28.83528 | -13.54271 | 5911 ft | 272 kts | 236° |
| 2026-05-06 17:03 | 28.82423 | -13.55991 | 5671 ft | 268 kts | 237° |
| 2026-05-06 17:03 | 28.81334 | -13.57681 | 5392 ft | 260 kts | 236° |
| 2026-05-06 17:04 | 28.80275 | -13.59322 | 5086 ft | 255 kts | 237° |
| 2026-05-06 17:04 | 28.79223 | -13.60957 | 4739 ft | 256 kts | 238° |
| 2026-05-06 17:04 | 28.78168 | -13.62599 | 4373 ft | 257 kts | 237° |
| 2026-05-06 17:04 | 28.77181 | -13.64289 | 4011 ft | 253 kts | 251° |
| 2026-05-06 17:05 | 28.76977 | -13.66168 | 3672 ft | 232 kts | 287° |
| 2026-05-06 17:05 | 28.77654 | -13.67730 | 3331 ft | 214 kts | 317° |
| 2026-05-06 17:05 | 28.78856 | -13.68629 | 2966 ft | 204 kts | 346° |
| 2026-05-06 17:05 | 28.80220 | -13.68712 | 2625 ft | 194 kts | 14° |
| 2026-05-06 17:06 | 28.81448 | -13.68126 | 2357 ft | 188 kts | 27° |
| 2026-05-06 17:06 | 28.82551 | -13.67478 | 2305 ft | 168 kts | 27° |
| 2026-05-06 17:06 | 28.83557 | -13.66890 | 2176 ft | 158 kts | 27° |
| 2026-05-06 17:06 | 28.84518 | -13.66333 | 2005 ft | 151 kts | 27° |
| 2026-05-06 17:07 | 28.85424 | -13.65808 | 1833 ft | 142 kts | 27° |
| 2026-05-06 17:07 | 28.86288 | -13.65308 | 1670 ft | 137 kts | 28° |
| 2026-05-06 17:07 | 28.87133 | -13.64818 | 1472 ft | 136 kts | 28° |
| 2026-05-06 17:07 | 28.87961 | -13.64339 | 1303 ft | 132 kts | 27° |
| 2026-05-06 17:08 | 28.88784 | -13.63863 | 1128 ft | 133 kts | 27° |
| 2026-05-06 17:08 | 28.89606 | -13.63387 | 942 ft | 132 kts | 28° |
| 2026-05-06 17:08 | 28.90440 | -13.62904 | 765 ft | 133 kts | 30° |
| 2026-05-06 17:08 | 28.91272 | -13.62422 | 587 ft | 132 kts | 29° |
| 2026-05-06 17:09 | 28.92083 | -13.61955 | 404 ft | 131 kts | 28° |
| 2026-05-06 17:09 | 28.92901 | -13.61472 | 241 ft | 131 kts | 30° |
| 2026-05-06 17:09 | 28.93709 | -13.61012 | 54 ft | 129 kts | 30° |
| 2026-05-06 17:09 | 28.94420 | -13.60595 | 33 ft | 99 kts | 28° |
| 2026-05-06 17:10 | 28.94879 | -13.60332 | 46 ft | 49 kts | 27° |
| 2026-05-06 17:10 | 28.95086 | -13.60223 | 50 ft | 23 kts | 17° |
| 2026-05-06 17:10 | 28.95237 | -13.60207 | 49 ft | 16 kts | 359° |
| 2026-05-06 17:10 | 28.95326 | -13.60241 | 50 ft | 8 kts | 298° |
| 2026-05-06 17:11 | 28.95332 | -13.60260 | 50 ft | 6 kts | 294° |
| 2026-05-06 17:11 | 28.95354 | -13.60310 | 50 ft | 8 kts | 297° |
| 2026-05-06 17:11 | 28.95381 | -13.60378 | 50 ft | 10 kts | 278° |
| 2026-05-06 17:11 | 28.95327 | -13.60429 | 50 ft | 12 kts | 207° |
| 2026-05-06 17:12 | 28.95245 | -13.60476 | 50 ft | 14 kts | 207° |
| 2026-05-06 17:12 | 28.95158 | -13.60526 | 50 ft | 14 kts | 206° |
| 2026-05-06 17:12 | 28.95075 | -13.60588 | 50 ft | 13 kts | 223° |
| 2026-05-06 17:12 | 28.95055 | -13.60635 | 50 ft | 7 kts | 288° |
| 2026-05-06 17:13 | 28.95069 | -13.60662 | 50 ft | 1 kts | 298° |
| 2026-05-06 17:13 | 28.95073 | -13.60670 | 50 ft | 1 kts | 298° |
| 2026-05-06 17:13 | 28.95076 | -13.60677 | 50 ft | 0 kts | 297° |
| 2026-05-06 17:14 | 28.95077 | -13.60678 | 50 ft | 1 kts | 297° |
| 2026-05-06 17:14 | 28.95082 | -13.60690 | 50 ft | 1 kts | 297° |
| 2026-05-06 17:14 | 28.95089 | -13.60705 | 48 ft | 2 kts | 297° |
| 2026-05-06 17:14 | 28.95091 | -13.60709 | 49 ft | 0 kts | 296° |